Time;durP1;ratioP1;P1;durP2;ratioP2;P2;SDS_P1;SDS_P2;PMS_P1;PMS_P2;Temp;Humidity;BMP_temperature;BMP_pressure;BME280_temperature;BME280_humidity;BME280_pressure;Samples;Min_cycle;Max_cycle;Signal;HPM_P1;HPM_P2
2022/08/04 00:01:06;;;;;;;8.20;5.90;;;;;;;19.42;100.00;99641.33;1646934;85;21076;-73
2022/08/04 00:03:44;;;;;;;9.18;6.22;;;;;;;19.39;100.00;99650.24;1645432;85;21052;-73
2022/08/04 00:06:16;;;;;;;11.20;6.58;;;;;;;19.36;100.00;99644.83;1628429;85;21099;-73
2022/08/04 00:08:49;;;;;;;7.33;6.58;;;;;;;19.33;100.00;99645.49;1643864;87;21514;-74
2022/08/04 00:11:22;;;;;;;7.80;6.22;;;;;;;19.36;100.00;99644.83;1614034;87;21610;-74
2022/08/04 00:13:54;;;;;;;7.97;6.85;;;;;;;19.38;100.00;99650.00;1620506;88;20988;-72
2022/08/04 00:16:21;;;;;;;8.20;6.83;;;;;;;19.41;100.00;99648.01;1594148;90;21051;-74
2022/08/04 00:18:57;;;;;;;8.05;6.30;;;;;;;19.45;100.00;99642.63;1609893;89;21697;-74
2022/08/04 00:21:24;;;;;;;9.05;6.03;;;;;;;19.48;100.00;99647.48;1609366;88;21115;-73
2022/08/04 00:23:50;;;;;;;8.23;6.33;;;;;;;19.47;100.00;99646.67;1628123;88;20971;-74
2022/08/04 00:26:17;;;;;;;8.50;6.45;;;;;;;19.45;100.00;99645.39;1659873;85;21091;-74
2022/08/04 00:28:43;;;;;;;6.53;5.90;;;;;;;19.43;100.00;99643.52;1653424;87;21055;-74
2022/08/04 00:31:10;;;;;;;7.83;5.67;;;;;;;19.41;100.00;99636.97;1651107;85;21055;-75
2022/08/04 00:33:39;;;;;;;8.25;6.50;;;;;;;19.42;100.00;99643.27;1621852;87;21603;-74
2022/08/04 00:36:06;;;;;;;10.78;7.00;;;;;;;19.40;100.00;99646.35;1641131;87;21070;-74
2022/08/04 00:38:32;;;;;;;9.18;6.90;;;;;;;19.37;100.00;99643.69;1640770;87;21541;-74
2022/08/04 00:41:19;;;;;;;8.75;6.87;;;;;;;19.38;100.00;99643.91;1640570;87;21022;-74
2022/08/04 00:44:24;;;;;;;8.63;7.10;;;;;;;19.39;100.00;99644.16;1632390;87;21026;-74
2022/08/04 00:47:11;;;;;;;7.97;7.17;;;;;;;19.35;100.00;99650.09;1640469;86;21726;-74
2022/08/04 00:50:20;;;;;;;8.57;6.77;;;;;;;19.34;100.00;99655.97;1647144;85;21006;-73
2022/08/04 00:53:06;;;;;;;9.18;6.80;;;;;;;19.36;100.00;99655.05;1639725;86;21683;-73
2022/08/04 00:55:53;;;;;;;11.87;7.07;;;;;;;19.33;100.00;99668.14;1641125;87;21459;-74
2022/08/04 00:58:31;;;;;;;8.20;7.37;;;;;;;19.36;100.00;99671.61;1635419;87;21026;-74
2022/08/04 01:01:07;;;;;;;11.18;7.08;;;;;;;19.39;100.00;99673.14;1640122;85;21540;-74
2022/08/04 01:03:57;;;;;;;9.80;7.53;;;;;;;19.44;100.00;99674.13;1641185;87;21740;-75
2022/08/04 01:06:32;;;;;;;10.95;8.08;;;;;;;19.46;100.00;99677.36;1641062;87;21105;-73
2022/08/04 01:09:22;;;;;;;14.47;8.08;;;;;;;19.46;100.00;99670.45;1641906;86;21026;-73
2022/08/04 01:12:06;;;;;;;8.85;6.85;;;;;;;19.45;100.00;99675.16;1641370;87;21125;-73
2022/08/04 01:14:47;;;;;;;8.55;7.55;;;;;;;19.45;100.00;99682.06;1641316;87;21074;-73
2022/08/04 01:17:27;;;;;;;9.60;7.78;;;;;;;19.42;100.00;99677.20;1640331;85;21078;-74
2022/08/04 01:20:08;;;;;;;10.68;6.97;;;;;;;19.39;100.00;99681.42;1637134;87;20986;-74
2022/08/04 01:23:10;;;;;;;9.38;7.37;;;;;;;19.37;100.00;99679.58;1636753;87;21034;-73
2022/08/04 01:25:58;;;;;;;13.48;7.78;;;;;;;19.38;100.00;99678.41;1638998;87;21027;-74
2022/08/04 01:28:49;;;;;;;9.13;7.40;;;;;;;19.39;100.00;99684.18;1636150;87;21077;-73
2022/08/04 01:31:26;;;;;;;11.08;7.78;;;;;;;19.46;100.00;99687.83;1641486;87;21094;-74
2022/08/04 01:33:53;;;;;;;11.08;7.72;;;;;;;19.47;100.00;99676.22;1637028;86;21564;-73
2022/08/04 01:36:19;;;;;;;13.03;8.40;;;;;;;19.52;100.00;99682.95;1626192;87;21585;-73
2022/08/04 01:38:46;;;;;;;9.08;7.72;;;;;;;19.55;100.00;99679.52;1634167;87;21157;-74
2022/08/04 01:41:13;;;;;;;10.30;7.62;;;;;;;19.59;100.00;99680.48;1632729;87;21141;-74
2022/08/04 01:43:42;;;;;;;9.05;8.10;;;;;;;19.60;100.00;99676.55;1635848;87;21648;-73
2022/08/04 01:46:14;;;;;;;14.58;8.60;;;;;;;19.61;100.00;99678.19;1633390;87;21074;-74
2022/08/04 01:48:46;;;;;;;11.43;9.20;;;;;;;19.63;100.00;99676.70;1640424;86;21071;-74
2022/08/04 01:51:12;;;;;;;10.82;8.45;;;;;;;19.67;100.00;99678.22;1638331;86;21047;-73
2022/08/04 01:53:41;;;;;;;11.50;8.35;;;;;;;19.70;100.00;99670.65;1630806;86;21070;-74
2022/08/04 01:56:09;;;;;;;15.15;9.33;;;;;;;19.69;100.00;99671.25;1634941;87;21117;-74
2022/08/04 01:58:36;;;;;;;12.03;9.10;;;;;;;19.66;100.00;99672.48;1629260;88;21019;-74
2022/08/04 02:01:08;;;;;;;13.30;10.03;;;;;;;19.61;100.00;99666.58;1632074;88;21038;-73
2022/08/04 02:03:40;;;;;;;12.98;9.40;;;;;;;19.59;100.00;99675.74;1632315;86;21058;-73
2022/08/04 02:06:33;;;;;;;14.25;9.95;;;;;;;19.59;100.00;99674.95;1633347;87;21105;-73
2022/08/04 02:09:08;;;;;;;12.18;10.08;;;;;;;19.54;100.00;99669.05;1633294;87;21080;-74
2022/08/04 02:11:34;;;;;;;11.85;9.15;;;;;;;19.50;100.00;99670.03;1634010;87;21062;-72
2022/08/04 02:14:39;;;;;;;12.75;10.35;;;;;;;19.49;100.00;99671.98;1631536;88;21034;-74
2022/08/04 02:17:16;;;;;;;16.15;10.98;;;;;;;19.45;100.00;99666.88;1635712;87;21553;-73
2022/08/04 02:19:57;;;;;;;16.70;12.35;;;;;;;19.43;100.00;99662.84;1635008;87;21074;-73
2022/08/04 02:22:24;;;;;;;16.87;13.93;;;;;;;19.42;100.00;99659.27;1637176;86;21070;-75
2022/08/04 02:24:56;;;;;;;14.47;12.33;;;;;;;19.41;100.00;99663.73;1632961;86;21003;-74
2022/08/04 02:27:28;;;;;;;13.93;11.05;;;;;;;19.39;100.00;99667.62;1629249;88;21081;-74
2022/08/04 02:29:59;;;;;;;14.10;10.82;;;;;;;19.39;100.00;99668.19;1607602;87;21041;-74
2022/08/04 02:32:28;;;;;;;12.33;10.25;;;;;;;19.38;100.00;99663.80;1608439;88;21650;-75
2022/08/04 02:35:07;;;;;;;12.68;10.53;;;;;;;19.39;100.00;99674.52;1581009;87;21510;-74
2022/08/04 02:37:34;;;;;;;12.28;9.43;;;;;;;19.42;100.00;99670.88;1600662;89;21049;-75
2022/08/04 02:40:05;;;;;;;12.13;10.25;;;;;;;19.40;100.00;99675.33;1635193;88;21486;-75
2022/08/04 02:42:32;;;;;;;11.93;10.35;;;;;;;19.37;100.00;99672.67;1587907;88;21579;-74
2022/08/04 02:44:59;;;;;;;14.20;10.65;;;;;;;19.36;100.00;99671.61;1630327;86;21486;-74
2022/08/04 02:47:27;;;;;;;12.37;11.03;;;;;;;19.37;100.00;99667.72;1616223;87;21518;-74
2022/08/04 02:49:53;;;;;;;15.48;11.95;;;;;;;19.43;100.00;99669.74;1632560;88;21019;-74
2022/08/04 02:52:20;;;;;;;12.50;11.18;;;;;;;19.45;100.00;99669.64;1632344;88;21054;-74
2022/08/04 02:54:48;;;;;;;14.00;10.80;;;;;;;19.46;100.00;99670.45;1632205;88;21534;-75
2022/08/04 02:57:15;;;;;;;12.07;10.58;;;;;;;19.46;100.00;99667.13;1613594;88;21031;-74
2022/08/04 03:00:10;;;;;;;12.58;8.73;;;;;;;19.47;100.00;99669.33;1631724;88;21008;-74
2022/08/04 03:03:05;;;;;;;17.70;10.35;;;;;;;19.49;100.00;99665.64;1615721;88;21108;-74
2022/08/04 03:06:03;;;;;;;13.40;10.28;;;;;;;19.50;100.00;99657.05;1629137;88;21097;-74
2022/08/04 03:09:13;;;;;;;12.93;11.18;;;;;;;19.53;100.00;99666.60;1632896;87;21038;-74
2022/08/04 03:12:18;;;;;;;12.88;11.65;;;;;;;19.57;100.00;99658.71;1618101;88;21123;-73
2022/08/04 03:15:14;;;;;;;16.42;11.48;;;;;;;19.54;100.00;99658.00;1624584;86;21538;-74
2022/08/04 03:18:19;;;;;;;11.45;9.88;;;;;;;19.52;100.00;99652.58;1608997;88;21099;-74
2022/08/04 03:21:27;;;;;;;15.88;12.33;;;;;;;19.47;100.00;99659.09;1631574;88;21138;-74
2022/08/04 03:24:16;;;;;;;13.05;10.93;;;;;;;19.44;100.00;99661.14;1631763;88;21050;-74
2022/08/04 03:27:04;;;;;;;14.13;11.03;;;;;;;19.46;100.00;99655.27;1619122;88;21051;-75
2022/08/04 03:30:06;;;;;;;14.90;10.88;;;;;;;19.47;100.00;99661.04;1629337;87;21644;-74
2022/08/04 03:36:12;;;;;;;13.00;11.57;;;;;;;19.53;100.00;99643.14;1806300;78;23414;-69
2022/08/04 03:39:07;;;;;;;16.50;12.03;;;;;;;19.50;100.00;99662.56;1733346;81;21612;-70
2022/08/04 03:42:18;;;;;;;18.00;13.00;;;;;;;19.49;100.00;99662.88;1729302;82;21501;-68
2022/08/04 03:45:19;;;;;;;13.53;11.48;;;;;;;19.54;100.00;99665.47;1691792;82;21557;-70
2022/08/04 03:48:29;;;;;;;13.10;11.90;;;;;;;19.50;100.00;99667.27;1729156;82;21083;-72
2022/08/04 03:54:40;;;;;;;15.58;13.90;;;;;;;19.45;100.00;99668.86;1726977;82;21106;-71
2022/08/04 03:57:39;;;;;;;17.60;14.10;;;;;;;19.45;100.00;99669.64;1730001;82;21023;-69
2022/08/04 04:00:15;;;;;;;13.08;11.63;;;;;;;19.47;100.00;99665.19;1731524;82;21061;-71
2022/08/04 04:03:16;;;;;;;14.80;13.00;;;;;;;19.48;100.00;99664.86;1731228;82;21026;-72
2022/08/04 04:06:20;;;;;;;15.75;12.45;;;;;;;19.49;100.00;99667.02;1736685;82;20971;-75
2022/08/04 04:09:19;;;;;;;16.73;12.58;;;;;;;19.55;100.00;99668.48;1738768;82;21047;-70
2022/08/04 04:12:11;;;;;;;14.47;12.37;;;;;;;19.58;100.00;99674.71;1732317;82;21461;-69
2022/08/04 04:15:08;;;;;;;16.12;12.98;;;;;;;19.63;100.00;99675.31;1729929;82;21023;-69
2022/08/04 04:17:49;;;;;;;17.17;13.83;;;;;;;19.67;100.00;99678.22;1738637;82;21533;-71
2022/08/04 04:20:33;;;;;;;15.75;13.98;;;;;;;19.67;100.00;99684.56;1737542;82;21014;-69
2022/08/04 04:23:21;;;;;;;16.73;13.35;;;;;;;19.64;100.00;99686.61;1746188;82;21050;-70
2022/08/04 04:26:25;;;;;;;20.08;13.68;;;;;;;19.64;100.00;99686.61;1742065;82;21051;-69
2022/08/04 04:29:13;;;;;;;16.52;13.70;;;;;;;19.65;100.00;99684.09;1732584;82;21094;-69
2022/08/04 04:32:23;;;;;;;22.25;14.28;;;;;;;19.66;100.00;99684.91;1730961;82;21534;-70
2022/08/04 04:35:15;;;;;;;17.62;13.38;;;;;;;19.66;100.00;99678.01;1734370;82;21040;-69
2022/08/04 04:38:17;;;;;;;17.00;14.13;;;;;;;19.69;100.00;99681.48;1719151;82;21059;-69
2022/08/04 04:41:12;;;;;;;16.32;14.33;;;;;;;19.72;100.00;99684.38;1709804;82;20986;-70
2022/08/04 04:43:50;;;;;;;18.27;14.23;;;;;;;19.72;100.00;99678.05;1672028;82;21560;-70
2022/08/04 04:46:39;;;;;;;17.60;13.48;;;;;;;19.74;100.00;99674.37;1716186;82;21051;-69
2022/08/04 04:49:34;;;;;;;16.42;14.63;;;;;;;19.76;100.00;99681.77;1730350;82;21562;-70
2022/08/04 04:52:27;;;;;;;19.80;15.00;;;;;;;19.77;100.00;99681.41;1715556;82;20976;-69
2022/08/04 04:55:11;;;;;;;18.40;15.05;;;;;;;19.79;100.00;99686.62;1723767;82;21514;-72
2022/08/04 04:57:38;;;;;;;22.07;14.35;;;;;;;19.83;100.00;99684.24;1720372;82;21000;-72
2022/08/04 05:00:08;;;;;;;16.23;14.55;;;;;;;19.89;100.00;99684.84;1715680;82;21000;-73
2022/08/04 05:03:14;;;;;;;22.70;14.87;;;;;;;19.93;100.00;99682.22;1722707;82;21671;-73
2022/08/04 05:05:58;;;;;;;19.40;13.55;;;;;;;19.90;100.00;99683.71;1733564;82;21012;-72
2022/08/04 05:09:08;;;;;;;21.37;15.68;;;;;;;19.90;100.00;99678.19;1718798;82;21035;-69
2022/08/04 05:12:15;;;;;;;19.17;15.00;;;;;;;19.93;100.00;99694.09;1727939;82;21632;-70
2022/08/04 05:14:47;;;;;;;19.15;15.58;;;;;;;19.93;100.00;99689.95;1716666;82;21019;-70
2022/08/04 05:17:40;;;;;;;20.00;15.08;;;;;;;20.03;100.00;99698.41;1723068;82;21111;-73
2022/08/04 05:20:17;;;;;;;16.40;14.60;;;;;;;20.10;100.00;99695.35;1725755;82;21004;-71
2022/08/04 05:22:53;;;;;;;18.17;14.98;;;;;;;20.18;100.00;99691.73;1719354;82;21095;-73
2022/08/04 05:25:24;;;;;;;16.15;14.35;;;;;;;20.22;100.00;99696.01;1720347;82;21011;-70
2022/08/04 05:27:58;;;;;;;20.15;15.28;;;;;;;20.28;100.00;99697.45;1715290;82;21570;-75
2022/08/04 05:30:25;;;;;;;19.82;14.95;;;;;;;20.28;100.00;99694.69;1717337;82;21023;-71
2022/08/04 05:33:08;;;;;;;16.97;14.65;;;;;;;20.27;100.00;99691.64;1695022;82;21019;-76
2022/08/04 05:35:52;;;;;;;21.80;14.50;;;;;;;20.25;100.00;99702.24;1721260;82;21609;-76
2022/08/04 05:38:21;;;;;;;16.50;14.78;;;;;;;20.24;100.00;99698.66;1728253;82;21023;-70
2022/08/04 05:40:47;;;;;;;17.10;14.65;;;;;;;20.20;100.00;99709.34;1722435;82;21541;-71
2022/08/04 05:43:13;;;;;;;17.75;14.25;;;;;;;20.19;100.00;99710.50;1727671;82;21027;-71
2022/08/04 05:45:40;;;;;;;17.07;14.73;;;;;;;20.15;100.00;99710.37;1715681;82;21027;-70
2022/08/04 05:48:07;;;;;;;16.10;14.43;;;;;;;20.13;100.00;99708.49;1718600;82;21511;-73
2022/08/04 05:50:33;;;;;;;17.67;15.80;;;;;;;20.16;100.00;99710.58;1723510;82;21526;-73
2022/08/04 05:53:00;;;;;;;17.98;15.20;;;;;;;20.14;100.00;99708.73;1720660;82;21043;-73
2022/08/04 05:55:28;;;;;;;18.40;15.18;;;;;;;20.15;100.00;99711.75;1727692;82;21031;-74
2022/08/04 05:57:55;;;;;;;18.02;14.87;;;;;;;20.16;100.00;99715.30;1721362;82;21020;-73
2022/08/04 06:00:22;;;;;;;21.12;15.48;;;;;;;20.17;100.00;99712.77;1727476;82;21526;-70
2022/08/04 06:02:49;;;;;;;17.45;14.68;;;;;;;20.21;100.00;99715.11;1706829;82;21114;-74
2022/08/04 06:05:17;;;;;;;19.30;15.32;;;;;;;20.24;100.00;99717.20;1733127;82;21055;-71
2022/08/04 06:07:44;;;;;;;20.52;15.05;;;;;;;20.22;100.00;99718.94;1736369;82;21546;-73
2022/08/04 06:10:11;;;;;;;18.87;15.28;;;;;;;20.25;100.00;99722.97;1723885;82;21038;-72
2022/08/04 06:12:43;;;;;;;19.10;15.25;;;;;;;20.25;100.00;99717.45;1734475;82;21047;-77
2022/08/04 06:15:12;;;;;;;19.17;15.08;;;;;;;20.23;100.00;99719.72;1722647;82;21558;-74
2022/08/04 06:17:41;;;;;;;19.65;15.38;;;;;;;20.21;100.00;99722.83;1703183;84;21039;-73
2022/08/04 06:20:08;;;;;;;16.90;13.72;;;;;;;20.23;100.00;99712.23;1680408;84;21028;-73
2022/08/04 06:22:35;;;;;;;19.15;15.20;;;;;;;20.28;100.00;99713.47;1676493;84;21058;-71
2022/08/04 06:25:02;;;;;;;16.67;14.40;;;;;;;20.33;100.00;99715.23;1648714;84;21553;-70
2022/08/04 06:27:30;;;;;;;17.30;15.50;;;;;;;20.39;100.00;99716.64;1681079;84;21039;-72
2022/08/04 06:29:58;;;;;;;18.40;15.70;;;;;;;20.47;100.00;99710.81;1698472;84;21561;-73
2022/08/04 06:32:29;;;;;;;18.92;14.50;;;;;;;20.53;100.00;99717.17;1682221;84;21118;-69
2022/08/04 06:35:02;;;;;;;21.70;14.55;;;;;;;20.62;100.00;99711.55;1674865;84;21051;-78
2022/08/04 06:37:29;;;;;;;18.25;15.40;;;;;;;20.67;100.00;99714.13;1685222;85;21072;-73
2022/08/04 06:39:56;;;;;;;16.77;14.68;;;;;;;20.70;100.00;99718.97;1673916;84;21533;-73
2022/08/04 06:42:25;;;;;;;15.65;14.00;;;;;;;20.74;100.00;99719.34;1657240;85;21065;-71
2022/08/04 06:44:57;;;;;;;16.00;14.30;;;;;;;20.74;100.00;99723.50;1657362;86;21013;-74
2022/08/04 06:47:23;;;;;;;14.87;13.32;;;;;;;20.80;100.00;99716.59;1685159;84;21034;-73
2022/08/04 06:49:52;;;;;;;16.42;13.98;;;;;;;20.87;100.00;99710.50;1681125;84;21553;-77
2022/08/04 06:52:19;;;;;;;14.58;13.08;;;;;;;20.93;100.00;99720.23;1706543;84;21105;-69
2022/08/04 06:54:47;;;;;;;17.60;13.93;;;;;;;21.01;100.00;99713.78;1689130;84;21541;-78
2022/08/04 06:57:19;;;;;;;15.98;13.93;;;;;;;21.14;100.00;99714.10;1699001;84;21708;-74
2022/08/04 07:00:01;;;;;;;15.35;13.22;;;;;;;21.20;100.00;99721.60;1680145;84;21031;-72
2022/08/04 07:02:30;;;;;;;15.30;13.25;;;;;;;21.26;100.00;99722.42;1651950;85;21762;-74
2022/08/04 07:04:56;;;;;;;15.15;13.65;;;;;;;21.36;100.00;99713.45;1688127;85;21423;-71
2022/08/04 07:07:23;;;;;;;17.37;12.82;;;;;;;21.36;100.00;99708.73;1677916;84;21452;-70
2022/08/04 07:09:50;;;;;;;14.93;13.28;;;;;;;21.34;100.00;99708.25;1665925;85;21024;-75
2022/08/04 07:12:20;;;;;;;18.00;12.95;;;;;;;21.28;100.00;99703.52;1685542;85;21107;-70
2022/08/04 07:14:45;;;;;;;18.27;12.73;;;;;;;21.31;100.00;99712.52;1710573;83;21041;-72
2022/08/04 07:17:11;;;;;;;14.40;13.00;;;;;;;21.42;100.00;99704.58;1690280;84;21030;-69
2022/08/04 07:19:37;;;;;;;16.23;13.35;;;;;;;21.58;100.00;99713.00;1682620;85;21023;-71
2022/08/04 07:22:04;;;;;;;15.78;12.60;;;;;;;21.65;100.00;99709.89;1689635;84;21010;-71
2022/08/04 07:24:31;;;;;;;15.15;12.90;;;;;;;21.69;100.00;99713.59;1651979;86;21094;-75
2022/08/04 07:26:58;;;;;;;15.15;13.55;;;;;;;21.75;100.00;99709.42;1692471;84;21042;-70
2022/08/04 07:29:25;;;;;;;13.70;11.78;;;;;;;21.81;100.00;99708.63;1691816;84;21421;-74
2022/08/04 07:31:53;;;;;;;14.20;12.43;;;;;;;21.81;100.00;99708.63;1663458;84;21486;-72
2022/08/04 07:34:19;;;;;;;15.72;11.85;;;;;;;22.05;100.00;99710.02;1675602;84;21019;-74
2022/08/04 07:36:46;;;;;;;13.88;12.30;;;;;;;22.18;100.00;99714.39;1676134;84;21041;-73
2022/08/04 07:39:13;;;;;;;13.70;11.25;;;;;;;22.26;100.00;99709.88;1711545;82;21529;-70
2022/08/04 07:41:41;;;;;;;12.15;11.00;;;;;;;22.40;100.00;99707.53;1717258;82;20952;-74
2022/08/04 07:44:09;;;;;;;13.90;12.37;;;;;;;22.52;100.00;99695.59;1709013;84;21027;-71
2022/08/04 07:46:36;;;;;;;11.78;10.48;;;;;;;22.68;100.00;99688.97;1724032;82;21601;-75
2022/08/04 07:49:03;;;;;;;15.13;12.07;;;;;;;22.65;100.00;99690.22;1694214;82;21044;-74
2022/08/04 07:51:30;;;;;;;12.53;11.22;;;;;;;22.74;100.00;99692.31;1718523;82;20992;-74
2022/08/04 07:53:57;;;;;;;12.20;10.90;;;;;;;22.74;100.00;99692.31;1712292;82;21135;-75
2022/08/04 07:56:27;;;;;;;12.35;10.95;;;;;;;22.98;100.00;99688.02;1726924;82;21088;-73
2022/08/04 07:58:54;;;;;;;12.13;10.88;;;;;;;23.23;100.00;99674.80;1708720;82;21051;-78
2022/08/04 08:01:22;;;;;;;13.55;11.10;;;;;;;23.23;100.00;99674.80;1726536;82;21114;-79
2022/08/04 08:03:49;;;;;;;15.83;10.90;;;;;;;23.33;100.00;99679.82;1738448;82;21743;-79
2022/08/04 08:06:15;;;;;;;11.88;10.63;;;;;;;23.57;100.00;99674.69;1715388;82;21035;-78
2022/08/04 08:08:42;;;;;;;11.33;9.80;;;;;;;23.84;100.00;99682.12;1714492;82;20992;-77
2022/08/04 08:11:09;;;;;;;14.87;11.03;;;;;;;24.03;100.00;99672.42;1715066;82;21016;-78
2022/08/04 08:13:35;;;;;;;12.15;10.95;;;;;;;24.11;100.00;99674.78;1659503;82;21012;-74
2022/08/04 08:16:02;;;;;;;11.83;10.48;;;;;;;24.08;100.00;99665.20;1721094;82;21012;-75
2022/08/04 08:18:29;;;;;;;11.57;10.38;;;;;;;24.07;100.00;99662.77;1724720;82;21044;-74
2022/08/04 08:20:56;;;;;;;12.25;10.95;;;;;;;23.93;100.00;99672.17;1738357;82;21059;-77
2022/08/04 08:23:23;;;;;;;11.68;10.32;;;;;;;23.82;100.00;99680.27;1738467;82;21098;-76
2022/08/04 08:25:50;;;;;;;12.15;10.90;;;;;;;23.73;100.00;99681.05;1737540;82;21522;-75
2022/08/04 08:28:16;;;;;;;11.35;10.18;;;;;;;23.80;100.00;99679.84;1719894;82;21110;-72
2022/08/04 08:30:43;;;;;;;12.20;9.90;;;;;;;24.03;100.00;99688.30;1715987;82;21609;-76
2022/08/04 08:33:12;;;;;;;12.20;10.32;;;;;;;24.16;100.00;99681.49;1729109;82;21605;-76
2022/08/04 08:35:53;;;;;;;12.75;10.13;;;;;;;24.20;100.00;99677.59;1751700;81;21521;-74
2022/08/04 08:38:25;;;;;;;11.70;10.53;;;;;;;24.22;100.00;99679.45;1673287;82;21087;-75
2022/08/04 08:40:57;;;;;;;12.93;10.00;;;;;;;24.26;100.00;99676.17;1648208;85;21090;-73
2022/08/04 08:43:41;;;;;;;12.33;10.45;;;;;;;24.27;100.00;99677.76;1675209;84;21122;-78
2022/08/04 08:46:46;;;;;;;14.33;10.03;;;;;;;24.28;100.00;99674.39;1679278;84;21353;-77
2022/08/04 08:49:41;;;;;;;10.20;9.30;;;;;;;24.26;100.00;99669.22;1683658;84;21102;-76
2022/08/04 08:52:46;;;;;;;11.10;10.00;;;;;;;24.41;100.00;99670.30;1686968;84;21039;-78
2022/08/04 08:55:57;;;;;;;17.05;11.73;;;;;;;24.69;100.00;99656.19;1680348;84;21063;-74
2022/08/04 08:58:38;;;;;;;12.18;9.58;;;;;;;24.75;100.00;99649.95;1621285;87;21143;-72
2022/08/04 09:01:44;;;;;;;13.80;9.90;;;;;;;24.66;100.00;99657.70;1670575;84;21051;-71
2022/08/04 09:05:00;;;;;;;10.90;8.75;;;;;;;24.64;100.00;99660.06;1681682;84;21118;-70
2022/08/04 09:07:53;;;;;;;13.05;8.30;;;;;;;24.73;100.00;99663.41;1675448;84;21087;-76
2022/08/04 09:10:27;;;;;;;12.45;9.80;;;;;;;24.92;100.00;99645.91;1670200;86;21046;-76
2022/08/04 09:13:02;;;;;;;9.55;8.65;;;;;;;25.08;100.00;99647.98;1687069;84;21082;-74
2022/08/04 09:16:04;;;;;;;10.15;8.25;;;;;;;25.23;100.00;99651.25;1698722;84;21031;-77
2022/08/04 09:18:57;;;;;;;8.30;7.50;;;;;;;25.45;100.00;99648.83;1687119;84;21007;-76
2022/08/04 09:21:50;;;;;;;10.85;8.00;;;;;;;25.42;100.00;99632.86;1639061;86;21059;-75
2022/08/04 09:24:48;;;;;;;12.40;8.38;;;;;;;25.18;100.00;99632.08;1718385;82;21440;-74
2022/08/04 09:27:27;;;;;;;11.25;7.30;;;;;;;25.15;100.00;99630.01;1704002;82;21079;-80
2022/08/04 09:30:07;;;;;;;9.48;6.87;;;;;;;25.25;100.00;99640.56;1738768;82;21020;-72
2022/08/04 09:33:05;;;;;;;8.15;6.35;;;;;;;25.39;100.00;99633.61;1715854;82;21059;-73
2022/08/04 09:35:55;;;;;;;10.25;7.17;;;;;;;25.42;100.00;99624.50;1726136;81;21039;-71
2022/08/04 09:38:57;;;;;;;7.70;6.85;;;;;;;25.32;100.00;99623.16;1722604;83;21043;-73
2022/08/04 09:41:46;;;;;;;12.70;6.95;;;;;;;25.36;100.00;99628.78;1703979;84;21062;-73
2022/08/04 09:44:24;;;;;;;7.47;6.15;;;;;;;25.58;100.00;99637.71;1735971;82;21557;-70
2022/08/04 09:46:59;;;;;;;9.18;7.22;;;;;;;25.83;100.00;99626.36;1748695;82;21101;-68
2022/08/04 09:49:50;;;;;;;8.43;6.67;;;;;;;25.94;100.00;99621.73;1751313;82;21570;-70
2022/08/04 09:52:47;;;;;;;10.28;7.03;;;;;;;25.95;100.00;99625.34;1725505;82;21488;-68
2022/08/04 09:55:26;;;;;;;8.63;6.42;;;;;;;25.82;100.00;99619.20;1722658;83;21035;-68
2022/08/04 09:57:58;;;;;;;6.90;6.03;;;;;;;25.66;100.00;99624.92;1726743;82;21082;-70
2022/08/04 10:00:28;;;;;;;8.93;6.55;;;;;;;25.60;100.00;99616.67;1727336;82;21038;-72
2022/08/04 10:02:55;;;;;;;8.93;7.08;;;;;;;25.60;100.00;99613.88;1734460;82;21027;-69
2022/08/04 10:05:28;;;;;;;9.18;6.85;;;;;;;25.55;100.00;99607.22;1696495;82;21027;-69
2022/08/04 10:08:40;;;;;;;11.22;6.65;;;;;;;25.57;100.00;99613.83;1696603;83;21055;-69
2022/08/04 10:11:14;;;;;;;8.28;7.12;;;;;;;25.65;100.00;99616.92;1747538;82;21620;-70
2022/08/04 10:14:00;;;;;;;10.00;6.35;;;;;;;25.73;100.00;99616.66;1726592;82;21477;-71
2022/08/04 10:16:46;;;;;;;7.50;6.57;;;;;;;25.73;100.00;99614.46;1722837;83;21086;-71
2022/08/04 10:19:27;;;;;;;8.73;6.03;;;;;;;25.72;100.00;99607.27;1725809;82;21436;-69
2022/08/04 10:22:25;;;;;;;7.17;5.83;;;;;;;25.72;100.00;99610.86;1736237;82;21529;-68
2022/08/04 10:25:47;;;;;;;8.20;5.87;;;;;;;25.77;100.00;99613.12;1701963;83;21043;-66
2022/08/04 10:28:16;;;;;;;7.20;6.00;;;;;;;25.70;100.00;99604.06;1729783;82;21548;-68
2022/08/04 10:30:48;;;;;;;8.48;6.20;;;;;;;25.60;100.00;99608.89;1728100;82;21553;-67
2022/08/04 10:33:22;;;;;;;7.65;5.92;;;;;;;25.54;100.00;99611.18;1726219;82;21691;-69
2022/08/04 10:35:53;;;;;;;10.40;5.75;;;;;;;25.61;100.00;99602.92;1718134;83;21039;-71
2022/08/04 10:38:36;;;;;;;12.53;6.37;;;;;;;25.75;100.00;99601.75;1698158;83;21059;-70
2022/08/04 10:41:44;;;;;;;8.25;5.67;;;;;;;25.90;100.00;99601.36;1714655;82;21059;-69
2022/08/04 10:44:30;;;;;;;8.95;6.15;;;;;;;26.03;100.00;99591.60;1717798;82;21052;-70
2022/08/04 10:46:59;;;;;;;;;;;;;;;26.01;100.00;99593.95;1739056;82;21448;-69
2022/08/04 10:49:39;;;;;;;9.98;6.55;;;;;;;25.89;100.00;99601.17;1721850;82;20335;-70
2022/08/04 10:52:31;;;;;;;7.80;6.20;;;;;;;25.90;100.00;99608.95;1729640;82;21075;-69
2022/08/04 10:55:19;;;;;;;9.78;6.30;;;;;;;26.05;100.00;99600.38;1738626;82;21012;-69
2022/08/04 10:57:50;;;;;;;9.33;6.20;;;;;;;26.18;100.00;99605.95;1717867;82;21059;-69
2022/08/04 11:00:23;;;;;;;6.60;5.90;;;;;;;26.35;100.00;99591.23;1711246;84;21498;-70
2022/08/04 11:03:14;;;;;;;10.28;6.75;;;;;;;26.43;100.00;99589.52;1714328;83;21106;-70
2022/08/04 11:05:55;;;;;;;7.58;6.08;;;;;;;26.44;100.00;99584.75;1714344;82;21569;-71
2022/08/04 11:08:30;;;;;;;7.60;6.47;;;;;;;26.33;100.00;99582.42;1715241;82;21609;-71
2022/08/04 11:11:02;;;;;;;8.43;6.70;;;;;;;26.26;100.00;99585.93;1712692;82;21027;-68
2022/08/04 11:14:02;;;;;;;9.75;6.70;;;;;;;26.16;100.00;99585.18;1714228;82;21043;-71
2022/08/04 11:16:42;;;;;;;8.38;6.78;;;;;;;25.99;100.00;99580.98;1717519;82;21035;-71
2022/08/04 11:19:44;;;;;;;7.45;5.80;;;;;;;25.86;100.00;99583.80;1703452;84;21054;-71
2022/08/04 11:22:25;;;;;;;7.75;5.83;;;;;;;25.91;100.00;99590.43;1703072;84;21055;-71
2022/08/04 11:25:09;;;;;;;11.12;6.17;;;;;;;26.14;100.00;99575.00;1717714;82;21455;-71
2022/08/04 11:28:10;;;;;;;10.10;6.30;;;;;;;26.27;100.00;99562.44;1684398;84;21068;-70
2022/08/04 11:30:46;;;;;;;8.15;6.28;;;;;;;26.40;100.00;99581.11;1711980;82;21490;-71
2022/08/04 11:33:42;;;;;;;9.05;6.45;;;;;;;26.47;100.00;99567.23;1709954;82;21055;-71
2022/08/04 11:36:51;;;;;;;9.00;6.53;;;;;;;26.39;100.00;99561.38;1701562;82;21027;-71
2022/08/04 11:39:35;;;;;;;9.45;6.95;;;;;;;26.38;100.00;99563.36;1722715;83;21000;-71
2022/08/04 11:42:26;;;;;;;9.03;6.75;;;;;;;26.34;100.00;99564.50;1726565;82;21023;-72
2022/08/04 11:45:18;;;;;;;9.35;6.60;;;;;;;26.23;100.00;99571.34;1723863;82;20968;-70
2022/08/04 11:48:00;;;;;;;9.68;6.90;;;;;;;26.10;100.00;99570.77;1677446;84;21071;-72
2022/08/04 11:50:34;;;;;;;8.38;6.25;;;;;;;26.05;100.00;99559.94;1667551;84;21028;-71
2022/08/04 11:53:00;;;;;;;7.42;6.45;;;;;;;26.09;100.00;99551.61;1710890;80;21082;-71
2022/08/04 11:55:27;;;;;;;7.08;6.37;;;;;;;26.21;100.00;99550.82;1730723;82;21014;-72
2022/08/04 11:57:53;;;;;;;7.97;6.67;;;;;;;26.19;100.00;99552.36;1722795;83;21529;-71
2022/08/04 12:00:20;;;;;;;8.58;6.97;;;;;;;26.19;100.00;99557.94;1722783;83;20995;-70
2022/08/04 12:03:13;;;;;;;9.33;6.70;;;;;;;26.16;100.00;99562.27;1729433;82;21047;-72
2022/08/04 12:06:11;;;;;;;7.78;6.20;;;;;;;26.16;100.00;99558.67;1750097;81;21015;-73
2022/08/04 12:08:59;;;;;;;8.10;6.60;;;;;;;26.09;100.00;99571.14;1722783;83;21533;-70
2022/08/04 12:12:02;;;;;;;9.90;6.90;;;;;;;26.11;100.00;99565.39;1726673;82;21030;-72
2022/08/04 12:14:52;;;;;;;9.30;6.78;;;;;;;26.14;100.00;99547.11;1738447;82;20995;-69
2022/08/04 12:17:39;;;;;;;9.88;6.33;;;;;;;26.07;100.00;99555.39;1723967;82;21043;-74